sensor_id;sensor_type;location;lat;lon;timestamp;temperature;humidity
1592;DHT22;789;51.612;7.510;2022-12-11T00:01:16;2.90;1.00
1592;DHT22;789;51.612;7.510;2022-12-11T00:03:43;2.90;1.00
1592;DHT22;789;51.612;7.510;2022-12-11T00:06:13;2.90;1.00
1592;DHT22;789;51.612;7.510;2022-12-11T00:08:41;2.90;1.00
1592;DHT22;789;51.612;7.510;2022-12-11T00:11:09;3.00;1.00
1592;DHT22;789;51.612;7.510;2022-12-11T00:13:37;3.00;1.00
1592;DHT22;789;51.612;7.510;2022-12-11T00:16:04;3.00;1.00
1592;DHT22;789;51.612;7.510;2022-12-11T00:18:31;2.90;1.00
1592;DHT22;789;51.612;7.510;2022-12-11T00:20:59;2.90;1.00
1592;DHT22;789;51.612;7.510;2022-12-11T00:23:28;3.00;1.00
1592;DHT22;789;51.612;7.510;2022-12-11T00:25:55;3.00;1.00
1592;DHT22;789;51.612;7.510;2022-12-11T00:28:22;3.10;1.00
1592;DHT22;789;51.612;7.510;2022-12-11T00:30:49;3.10;1.00
1592;DHT22;789;51.612;7.510;2022-12-11T00:33:17;3.20;1.00
1592;DHT22;789;51.612;7.510;2022-12-11T00:35:45;3.10;1.00
1592;DHT22;789;51.612;7.510;2022-12-11T00:38:14;3.20;1.00
1592;DHT22;789;51.612;7.510;2022-12-11T00:40:43;3.20;1.00
1592;DHT22;789;51.612;7.510;2022-12-11T00:43:10;3.20;1.00
1592;DHT22;789;51.612;7.510;2022-12-11T00:45:37;3.20;1.00
1592;DHT22;789;51.612;7.510;2022-12-11T00:48:05;3.20;1.00
1592;DHT22;789;51.612;7.510;2022-12-11T00:50:33;3.10;1.00
1592;DHT22;789;51.612;7.510;2022-12-11T00:53:00;3.20;1.00
1592;DHT22;789;51.612;7.510;2022-12-11T00:55:27;3.20;1.00
1592;DHT22;789;51.612;7.510;2022-12-11T00:57:56;3.10;1.00
1592;DHT22;789;51.612;7.510;2022-12-11T01:00:23;3.10;1.00
1592;DHT22;789;51.612;7.510;2022-12-11T01:02:50;3.00;1.00
1592;DHT22;789;51.612;7.510;2022-12-11T01:05:17;3.00;1.00
1592;DHT22;789;51.612;7.510;2022-12-11T01:07:44;3.00;1.00
1592;DHT22;789;51.612;7.510;2022-12-11T01:10:11;3.00;1.00
1592;DHT22;789;51.612;7.510;2022-12-11T01:12:51;3.00;1.00
1592;DHT22;789;51.612;7.510;2022-12-11T01:15:20;2.90;1.00
1592;DHT22;789;51.612;7.510;2022-12-11T01:17:48;2.90;1.00
1592;DHT22;789;51.612;7.510;2022-12-11T01:20:15;2.80;1.00
1592;DHT22;789;51.612;7.510;2022-12-11T01:22:42;2.80;1.00
1592;DHT22;789;51.612;7.510;2022-12-11T01:25:09;2.70;1.00
1592;DHT22;789;51.612;7.510;2022-12-11T01:27:36;2.70;1.00
1592;DHT22;789;51.612;7.510;2022-12-11T01:30:05;2.60;1.00
1592;DHT22;789;51.612;7.510;2022-12-11T01:32:34;2.60;1.00
1592;DHT22;789;51.612;7.510;2022-12-11T01:35:02;2.60;1.00
1592;DHT22;789;51.612;7.510;2022-12-11T01:37:29;2.60;1.00
1592;DHT22;789;51.612;7.510;2022-12-11T01:39:56;2.60;1.00
1592;DHT22;789;51.612;7.510;2022-12-11T01:42:23;2.60;1.00
1592;DHT22;789;51.612;7.510;2022-12-11T01:45:26;2.50;1.00
1592;DHT22;789;51.612;7.510;2022-12-11T01:47:57;2.50;1.00
1592;DHT22;789;51.612;7.510;2022-12-11T01:50:25;2.40;1.00
1592;DHT22;789;51.612;7.510;2022-12-11T01:52:53;2.50;1.00
1592;DHT22;789;51.612;7.510;2022-12-11T01:55:19;2.60;1.00
1592;DHT22;789;51.612;7.510;2022-12-11T01:57:48;2.60;1.00
1592;DHT22;789;51.612;7.510;2022-12-11T02:00:16;2.70;1.00
1592;DHT22;789;51.612;7.510;2022-12-11T02:02:43;2.80;1.00
1592;DHT22;789;51.612;7.510;2022-12-11T02:05:12;2.90;1.00
1592;DHT22;789;51.612;7.510;2022-12-11T02:07:42;2.90;1.00
1592;DHT22;789;51.612;7.510;2022-12-11T02:10:10;3.00;1.00
1592;DHT22;789;51.612;7.510;2022-12-11T02:12:42;3.10;1.00
1592;DHT22;789;51.612;7.510;2022-12-11T02:15:22;3.10;1.00
1592;DHT22;789;51.612;7.510;2022-12-11T02:17:53;3.10;1.00
1592;DHT22;789;51.612;7.510;2022-12-11T02:20:26;3.20;1.00
1592;DHT22;789;51.612;7.510;2022-12-11T02:25:56;3.20;1.00
1592;DHT22;789;51.612;7.510;2022-12-11T02:28:32;3.20;1.00
1592;DHT22;789;51.612;7.510;2022-12-11T02:31:04;3.20;1.00
1592;DHT22;789;51.612;7.510;2022-12-11T02:33:37;3.10;1.00
1592;DHT22;789;51.612;7.510;2022-12-11T02:36:07;3.10;1.00
1592;DHT22;789;51.612;7.510;2022-12-11T02:38:37;3.30;1.00
1592;DHT22;789;51.612;7.510;2022-12-11T02:41:06;3.20;1.00
1592;DHT22;789;51.612;7.510;2022-12-11T02:43:36;3.20;1.00
1592;DHT22;789;51.612;7.510;2022-12-11T02:46:05;3.20;1.00
1592;DHT22;789;51.612;7.510;2022-12-11T02:48:33;3.20;1.00
1592;DHT22;789;51.612;7.510;2022-12-11T02:51:03;3.20;1.00
1592;DHT22;789;51.612;7.510;2022-12-11T02:53:32;3.10;1.00
1592;DHT22;789;51.612;7.510;2022-12-11T02:56:05;3.00;1.00
1592;DHT22;789;51.612;7.510;2022-12-11T02:58:36;3.00;1.00
1592;DHT22;789;51.612;7.510;2022-12-11T03:01:05;3.00;1.00
1592;DHT22;789;51.612;7.510;2022-12-11T03:03:32;2.90;1.00
1592;DHT22;789;51.612;7.510;2022-12-11T03:05:59;2.90;1.00
1592;DHT22;789;51.612;7.510;2022-12-11T03:08:25;2.90;1.00
1592;DHT22;789;51.612;7.510;2022-12-11T03:10:52;2.90;1.00
1592;DHT22;789;51.612;7.510;2022-12-11T03:13:20;2.90;1.00
1592;DHT22;789;51.612;7.510;2022-12-11T03:15:58;2.90;1.00
1592;DHT22;789;51.612;7.510;2022-12-11T03:18:32;3.00;1.00
1592;DHT22;789;51.612;7.510;2022-12-11T03:21:04;3.00;1.00
1592;DHT22;789;51.612;7.510;2022-12-11T03:23:36;3.00;1.00
1592;DHT22;789;51.612;7.510;2022-12-11T03:26:04;3.10;1.00
1592;DHT22;789;51.612;7.510;2022-12-11T03:28:36;3.20;1.00
1592;DHT22;789;51.612;7.510;2022-12-11T03:31:08;3.10;1.00
1592;DHT22;789;51.612;7.510;2022-12-11T03:33:38;3.10;1.00
1592;DHT22;789;51.612;7.510;2022-12-11T03:36:08;3.10;1.00
1592;DHT22;789;51.612;7.510;2022-12-11T03:38:38;3.10;1.00
1592;DHT22;789;51.612;7.510;2022-12-11T03:41:07;3.00;1.00
1592;DHT22;789;51.612;7.510;2022-12-11T03:43:35;2.90;1.00
1592;DHT22;789;51.612;7.510;2022-12-11T03:46:03;2.90;1.00
1592;DHT22;789;51.612;7.510;2022-12-11T03:48:33;2.90;1.00
1592;DHT22;789;51.612;7.510;2022-12-11T03:51:04;2.90;1.00
1592;DHT22;789;51.612;7.510;2022-12-11T03:53:32;2.90;1.00
1592;DHT22;789;51.612;7.510;2022-12-11T03:55:59;3.00;1.00
1592;DHT22;789;51.612;7.510;2022-12-11T03:58:27;3.10;1.00
1592;DHT22;789;51.612;7.510;2022-12-11T04:00:54;3.00;1.00
1592;DHT22;789;51.612;7.510;2022-12-11T04:03:21;3.00;1.00
1592;DHT22;789;51.612;7.510;2022-12-11T04:05:50;3.00;1.00
1592;DHT22;789;51.612;7.510;2022-12-11T04:08:18;3.00;1.00
1592;DHT22;789;51.612;7.510;2022-12-11T04:10:46;3.00;1.00
1592;DHT22;789;51.612;7.510;2022-12-11T04:13:13;3.10;1.00
1592;DHT22;789;51.612;7.510;2022-12-11T04:15:40;3.20;1.00
1592;DHT22;789;51.612;7.510;2022-12-11T04:18:06;3.20;1.00
1592;DHT22;789;51.612;7.510;2022-12-11T04:20:53;3.20;1.00
1592;DHT22;789;51.612;7.510;2022-12-11T04:23:38;3.10;1.00
1592;DHT22;789;51.612;7.510;2022-12-11T04:26:22;3.20;1.00
1592;DHT22;789;51.612;7.510;2022-12-11T04:28:50;3.20;1.00
1592;DHT22;789;51.612;7.510;2022-12-11T04:31:18;3.20;1.00
1592;DHT22;789;51.612;7.510;2022-12-11T04:33:51;3.20;1.00
1592;DHT22;789;51.612;7.510;2022-12-11T04:36:21;3.20;1.00
1592;DHT22;789;51.612;7.510;2022-12-11T04:38:48;3.20;1.00
1592;DHT22;789;51.612;7.510;2022-12-11T04:41:16;3.20;1.00
1592;DHT22;789;51.612;7.510;2022-12-11T04:43:43;3.10;1.00
1592;DHT22;789;51.612;7.510;2022-12-11T04:46:12;3.00;1.00
1592;DHT22;789;51.612;7.510;2022-12-11T04:48:39;3.00;1.00
1592;DHT22;789;51.612;7.510;2022-12-11T04:51:06;3.10;1.00
1592;DHT22;789;51.612;7.510;2022-12-11T04:53:35;3.10;1.00
1592;DHT22;789;51.612;7.510;2022-12-11T04:56:06;3.20;1.00
1592;DHT22;789;51.612;7.510;2022-12-11T04:58:38;3.20;1.00
1592;DHT22;789;51.612;7.510;2022-12-11T05:01:09;3.20;1.00
1592;DHT22;789;51.612;7.510;2022-12-11T05:03:38;3.20;1.00
1592;DHT22;789;51.612;7.510;2022-12-11T05:06:06;3.20;1.00
1592;DHT22;789;51.612;7.510;2022-12-11T05:08:36;3.10;1.00
1592;DHT22;789;51.612;7.510;2022-12-11T05:11:06;3.00;1.00
1592;DHT22;789;51.612;7.510;2022-12-11T05:13:33;3.00;1.00
1592;DHT22;789;51.612;7.510;2022-12-11T05:16:02;3.00;1.00
1592;DHT22;789;51.612;7.510;2022-12-11T05:18:29;3.00;1.00
1592;DHT22;789;51.612;7.510;2022-12-11T05:20:56;3.10;1.00
1592;DHT22;789;51.612;7.510;2022-12-11T05:23:23;3.00;1.00
1592;DHT22;789;51.612;7.510;2022-12-11T05:25:55;3.00;1.00
1592;DHT22;789;51.612;7.510;2022-12-11T05:28:23;3.00;1.00
1592;DHT22;789;51.612;7.510;2022-12-11T05:30:54;3.10;1.00
1592;DHT22;789;51.612;7.510;2022-12-11T05:33:21;3.10;1.00
1592;DHT22;789;51.612;7.510;2022-12-11T05:35:48;3.10;1.00
1592;DHT22;789;51.612;7.510;2022-12-11T05:38:15;3.10;1.00
1592;DHT22;789;51.612;7.510;2022-12-11T05:40:42;3.10;1.00
1592;DHT22;789;51.612;7.510;2022-12-11T05:43:10;3.10;1.00
1592;DHT22;789;51.612;7.510;2022-12-11T05:45:37;3.20;1.00
1592;DHT22;789;51.612;7.510;2022-12-11T05:48:04;3.20;1.00
1592;DHT22;789;51.612;7.510;2022-12-11T05:50:30;3.20;1.00
1592;DHT22;789;51.612;7.510;2022-12-11T05:52:57;3.20;1.00
1592;DHT22;789;51.612;7.510;2022-12-11T05:55:24;3.20;1.00
1592;DHT22;789;51.612;7.510;2022-12-11T05:57:50;3.10;1.00
1592;DHT22;789;51.612;7.510;2022-12-11T06:02:45;3.00;1.00
1592;DHT22;789;51.612;7.510;2022-12-11T06:05:12;3.10;1.00
1592;DHT22;789;51.612;7.510;2022-12-11T06:07:38;3.10;1.00
1592;DHT22;789;51.612;7.510;2022-12-11T06:10:06;3.10;1.00
1592;DHT22;789;51.612;7.510;2022-12-11T06:12:33;3.20;1.00
1592;DHT22;789;51.612;7.510;2022-12-11T06:14:59;3.20;1.00
1592;DHT22;789;51.612;7.510;2022-12-11T06:17:27;3.30;1.00
1592;DHT22;789;51.612;7.510;2022-12-11T06:19:54;3.30;1.00
1592;DHT22;789;51.612;7.510;2022-12-11T06:22:21;3.40;1.00
1592;DHT22;789;51.612;7.510;2022-12-11T06:24:47;3.40;1.00
1592;DHT22;789;51.612;7.510;2022-12-11T06:27:14;3.40;1.00
1592;DHT22;789;51.612;7.510;2022-12-11T06:29:41;3.50;1.00
1592;DHT22;789;51.612;7.510;2022-12-11T06:32:07;3.50;1.00
1592;DHT22;789;51.612;7.510;2022-12-11T06:34:36;3.50;1.00
1592;DHT22;789;51.612;7.510;2022-12-11T06:37:02;3.50;1.00
1592;DHT22;789;51.612;7.510;2022-12-11T06:39:29;3.50;1.00
1592;DHT22;789;51.612;7.510;2022-12-11T06:41:56;3.50;1.00
1592;DHT22;789;51.612;7.510;2022-12-11T06:44:22;3.50;1.00
1592;DHT22;789;51.612;7.510;2022-12-11T06:46:50;3.50;1.00
1592;DHT22;789;51.612;7.510;2022-12-11T06:49:16;3.50;1.00
1592;DHT22;789;51.612;7.510;2022-12-11T06:51:45;3.50;1.00
1592;DHT22;789;51.612;7.510;2022-12-11T06:54:11;3.50;1.00
1592;DHT22;789;51.612;7.510;2022-12-11T06:56:38;3.50;1.00
1592;DHT22;789;51.612;7.510;2022-12-11T06:59:05;3.50;1.00
1592;DHT22;789;51.612;7.510;2022-12-11T07:01:31;3.40;1.00
1592;DHT22;789;51.612;7.510;2022-12-11T07:03:59;3.40;1.00
1592;DHT22;789;51.612;7.510;2022-12-11T07:06:27;3.40;1.00
1592;DHT22;789;51.612;7.510;2022-12-11T07:08:55;3.50;1.00
1592;DHT22;789;51.612;7.510;2022-12-11T07:11:22;3.50;1.00
1592;DHT22;789;51.612;7.510;2022-12-11T07:13:49;3.50;1.00
1592;DHT22;789;51.612;7.510;2022-12-11T07:16:19;3.50;1.00
1592;DHT22;789;51.612;7.510;2022-12-11T07:18:50;3.50;1.00
1592;DHT22;789;51.612;7.510;2022-12-11T07:21:18;3.60;1.00
1592;DHT22;789;51.612;7.510;2022-12-11T07:23:46;3.60;1.00
1592;DHT22;789;51.612;7.510;2022-12-11T07:26:16;3.70;1.00
1592;DHT22;789;51.612;7.510;2022-12-11T07:28:44;3.80;1.00
1592;DHT22;789;51.612;7.510;2022-12-11T07:31:12;3.80;1.00
1592;DHT22;789;51.612;7.510;2022-12-11T07:33:40;3.90;1.00
1592;DHT22;789;51.612;7.510;2022-12-11T07:36:10;3.80;1.00
1592;DHT22;789;51.612;7.510;2022-12-11T07:38:37;3.80;1.00
1592;DHT22;789;51.612;7.510;2022-12-11T07:41:06;3.80;1.00
1592;DHT22;789;51.612;7.510;2022-12-11T07:43:35;3.90;1.00
1592;DHT22;789;51.612;7.510;2022-12-11T07:46:03;3.80;1.00
1592;DHT22;789;51.612;7.510;2022-12-11T07:48:30;3.90;1.00
1592;DHT22;789;51.612;7.510;2022-12-11T07:51:07;3.80;1.00
1592;DHT22;789;51.612;7.510;2022-12-11T07:53:33;3.90;1.00
1592;DHT22;789;51.612;7.510;2022-12-11T07:56:00;3.90;1.00
1592;DHT22;789;51.612;7.510;2022-12-11T07:58:27;3.80;1.00
1592;DHT22;789;51.612;7.510;2022-12-11T08:00:55;3.80;1.00
1592;DHT22;789;51.612;7.510;2022-12-11T08:03:22;3.80;1.00
1592;DHT22;789;51.612;7.510;2022-12-11T08:05:50;3.80;1.00
1592;DHT22;789;51.612;7.510;2022-12-11T08:08:17;3.80;1.00
1592;DHT22;789;51.612;7.510;2022-12-11T08:10:45;3.80;1.00
1592;DHT22;789;51.612;7.510;2022-12-11T08:13:11;3.60;1.00
1592;DHT22;789;51.612;7.510;2022-12-11T08:15:38;3.60;1.00
1592;DHT22;789;51.612;7.510;2022-12-11T08:18:06;3.60;1.00
1592;DHT22;789;51.612;7.510;2022-12-11T08:20:33;3.70;1.00
1592;DHT22;789;51.612;7.510;2022-12-11T08:22:59;3.60;1.00
1592;DHT22;789;51.612;7.510;2022-12-11T08:25:27;3.70;1.00
1592;DHT22;789;51.612;7.510;2022-12-11T08:27:53;3.70;1.00
1592;DHT22;789;51.612;7.510;2022-12-11T08:30:20;3.70;1.00
1592;DHT22;789;51.612;7.510;2022-12-11T08:32:47;3.70;1.00
1592;DHT22;789;51.612;7.510;2022-12-11T08:35:15;3.70;1.00
1592;DHT22;789;51.612;7.510;2022-12-11T08:37:42;3.70;1.00
1592;DHT22;789;51.612;7.510;2022-12-11T08:40:09;3.80;1.00
1592;DHT22;789;51.612;7.510;2022-12-11T08:42:36;3.90;1.00
1592;DHT22;789;51.612;7.510;2022-12-11T08:45:04;3.90;1.00
1592;DHT22;789;51.612;7.510;2022-12-11T08:47:31;3.90;1.00
1592;DHT22;789;51.612;7.510;2022-12-11T08:49:58;3.90;1.00
1592;DHT22;789;51.612;7.510;2022-12-11T08:52:26;3.80;1.00
1592;DHT22;789;51.612;7.510;2022-12-11T08:54:53;4.00;1.00
1592;DHT22;789;51.612;7.510;2022-12-11T08:57:19;3.90;1.00
1592;DHT22;789;51.612;7.510;2022-12-11T08:59:46;4.00;1.00
1592;DHT22;789;51.612;7.510;2022-12-11T09:02:13;4.00;1.00
1592;DHT22;789;51.612;7.510;2022-12-11T09:04:40;4.00;1.00
1592;DHT22;789;51.612;7.510;2022-12-11T09:07:07;4.00;1.00
1592;DHT22;789;51.612;7.510;2022-12-11T09:09:35;4.00;1.00
1592;DHT22;789;51.612;7.510;2022-12-11T09:12:01;3.90;1.00
1592;DHT22;789;51.612;7.510;2022-12-11T09:14:31;3.90;1.00
1592;DHT22;789;51.612;7.510;2022-12-11T09:16:58;4.00;1.00
1592;DHT22;789;51.612;7.510;2022-12-11T09:19:25;4.00;1.00
1592;DHT22;789;51.612;7.510;2022-12-11T09:21:52;4.00;1.00
1592;DHT22;789;51.612;7.510;2022-12-11T09:24:18;4.00;1.00
1592;DHT22;789;51.612;7.510;2022-12-11T09:26:47;4.00;1.00
1592;DHT22;789;51.612;7.510;2022-12-11T09:29:13;4.00;1.00
1592;DHT22;789;51.612;7.510;2022-12-11T09:31:40;3.90;1.00
1592;DHT22;789;51.612;7.510;2022-12-11T09:34:10;4.00;1.00
1592;DHT22;789;51.612;7.510;2022-12-11T09:36:38;3.90;1.00
1592;DHT22;789;51.612;7.510;2022-12-11T09:39:07;4.00;1.00
1592;DHT22;789;51.612;7.510;2022-12-11T09:41:37;4.00;1.00
1592;DHT22;789;51.612;7.510;2022-12-11T09:44:17;4.00;1.00
1592;DHT22;789;51.612;7.510;2022-12-11T09:46:45;4.00;1.00
1592;DHT22;789;51.612;7.510;2022-12-11T09:49:21;4.10;1.00
1592;DHT22;789;51.612;7.510;2022-12-11T09:51:57;4.10;1.00
1592;DHT22;789;51.612;7.510;2022-12-11T09:54:26;4.10;1.00
1592;DHT22;789;51.612;7.510;2022-12-11T09:56:57;4.10;1.00
1592;DHT22;789;51.612;7.510;2022-12-11T09:59:33;4.10;1.00
1592;DHT22;789;51.612;7.510;2022-12-11T10:02:08;4.10;1.00
1592;DHT22;789;51.612;7.510;2022-12-11T10:04:49;4.10;1.00
1592;DHT22;789;51.612;7.510;2022-12-11T10:07:25;4.10;1.00
1592;DHT22;789;51.612;7.510;2022-12-11T10:10:00;4.20;1.00
1592;DHT22;789;51.612;7.510;2022-12-11T10:12:35;4.10;1.00
1592;DHT22;789;51.612;7.510;2022-12-11T10:18:12;4.00;1.00
1592;DHT22;789;51.612;7.510;2022-12-11T10:20:41;4.10;1.00
1592;DHT22;789;51.612;7.510;2022-12-11T10:23:16;4.10;1.00
1592;DHT22;789;51.612;7.510;2022-12-11T10:25:46;4.10;1.00
1592;DHT22;789;51.612;7.510;2022-12-11T10:28:16;4.10;1.00
1592;DHT22;789;51.612;7.510;2022-12-11T10:30:47;4.10;1.00
1592;DHT22;789;51.612;7.510;2022-12-11T10:33:19;4.10;1.00
1592;DHT22;789;51.612;7.510;2022-12-11T10:35:49;4.10;1.00
1592;DHT22;789;51.612;7.510;2022-12-11T10:38:20;4.00;1.00
1592;DHT22;789;51.612;7.510;2022-12-11T10:40:50;3.90;1.00
1592;DHT22;789;51.612;7.510;2022-12-11T10:43:17;4.00;1.00
1592;DHT22;789;51.612;7.510;2022-12-11T10:45:50;4.10;1.00
1592;DHT22;789;51.612;7.510;2022-12-11T10:48:18;4.10;1.00
1592;DHT22;789;51.612;7.510;2022-12-11T10:50:55;4.10;1.00
1592;DHT22;789;51.612;7.510;2022-12-11T10:53:23;4.10;1.00
1592;DHT22;789;51.612;7.510;2022-12-11T10:55:50;3.90;1.00
1592;DHT22;789;51.612;7.510;2022-12-11T10:58:19;3.90;1.00
1592;DHT22;789;51.612;7.510;2022-12-11T11:00:56;4.00;1.00
1592;DHT22;789;51.612;7.510;2022-12-11T11:03:27;3.80;1.00
1592;DHT22;789;51.612;7.510;2022-12-11T11:06:01;3.80;1.00
1592;DHT22;789;51.612;7.510;2022-12-11T11:08:37;3.80;1.00
1592;DHT22;789;51.612;7.510;2022-12-11T11:11:04;3.80;1.00
1592;DHT22;789;51.612;7.510;2022-12-11T11:13:33;3.70;1.00
1592;DHT22;789;51.612;7.510;2022-12-11T11:16:01;3.70;1.00
1592;DHT22;789;51.612;7.510;2022-12-11T11:18:32;3.70;1.00
1592;DHT22;789;51.612;7.510;2022-12-11T11:21:02;3.70;1.00
1592;DHT22;789;51.612;7.510;2022-12-11T11:23:29;3.70;1.00
1592;DHT22;789;51.612;7.510;2022-12-11T11:25:58;3.60;1.00
1592;DHT22;789;51.612;7.510;2022-12-11T11:28:28;3.70;1.00
1592;DHT22;789;51.612;7.510;2022-12-11T11:31:01;3.80;1.00
1592;DHT22;789;51.612;7.510;2022-12-11T11:33:30;3.80;1.00
1592;DHT22;789;51.612;7.510;2022-12-11T11:36:00;3.80;1.00
1592;DHT22;789;51.612;7.510;2022-12-11T11:38:30;3.80;1.00
1592;DHT22;789;51.612;7.510;2022-12-11T11:41:07;3.80;1.00
1592;DHT22;789;51.612;7.510;2022-12-11T11:43:39;3.80;1.00
1592;DHT22;789;51.612;7.510;2022-12-11T11:46:13;3.90;1.00
1592;DHT22;789;51.612;7.510;2022-12-11T11:48:50;3.90;1.00
1592;DHT22;789;51.612;7.510;2022-12-11T11:51:24;3.90;1.00
1592;DHT22;789;51.612;7.510;2022-12-11T11:53:57;4.00;1.00
1592;DHT22;789;51.612;7.510;2022-12-11T11:56:28;4.50;1.00
1592;DHT22;789;51.612;7.510;2022-12-11T11:59:04;4.00;1.00
1592;DHT22;789;51.612;7.510;2022-12-11T12:01:32;4.00;1.00
1592;DHT22;789;51.612;7.510;2022-12-11T12:04:02;4.10;1.00
1592;DHT22;789;51.612;7.510;2022-12-11T12:06:41;4.10;1.00
1592;DHT22;789;51.612;7.510;2022-12-11T12:09:18;4.10;1.00
1592;DHT22;789;51.612;7.510;2022-12-11T12:11:52;4.20;1.00
1592;DHT22;789;51.612;7.510;2022-12-11T12:14:23;4.20;1.00
1592;DHT22;789;51.612;7.510;2022-12-11T12:17:00;4.20;1.00
1592;DHT22;789;51.612;7.510;2022-12-11T12:19:52;4.20;1.00
1592;DHT22;789;51.612;7.510;2022-12-11T12:22:31;4.10;1.00
1592;DHT22;789;51.612;7.510;2022-12-11T12:25:09;4.10;1.00
1592;DHT22;789;51.612;7.510;2022-12-11T12:27:44;4.10;1.00
1592;DHT22;789;51.612;7.510;2022-12-11T12:30:14;4.10;1.00
1592;DHT22;789;51.612;7.510;2022-12-11T12:32:48;4.10;1.00
1592;DHT22;789;51.612;7.510;2022-12-11T12:35:33;4.10;1.00
1592;DHT22;789;51.612;7.510;2022-12-11T12:38:06;4.20;1.00
1592;DHT22;789;51.612;7.510;2022-12-11T12:40:41;4.20;1.00
1592;DHT22;789;51.612;7.510;2022-12-11T12:43:25;4.20;1.00
1592;DHT22;789;51.612;7.510;2022-12-11T12:46:04;4.20;1.00
1592;DHT22;789;51.612;7.510;2022-12-11T12:48:35;4.20;1.00
1592;DHT22;789;51.612;7.510;2022-12-11T12:51:04;4.20;1.00
1592;DHT22;789;51.612;7.510;2022-12-11T12:53:33;4.20;1.00
1592;DHT22;789;51.612;7.510;2022-12-11T12:56:05;4.30;1.00
1592;DHT22;789;51.612;7.510;2022-12-11T12:58:40;4.40;1.00
1592;DHT22;789;51.612;7.510;2022-12-11T13:01:09;4.20;1.00
1592;DHT22;789;51.612;7.510;2022-12-11T13:03:49;4.20;1.00
1592;DHT22;789;51.612;7.510;2022-12-11T13:06:32;4.20;1.00
1592;DHT22;789;51.612;7.510;2022-12-11T13:09:11;4.30;1.00
1592;DHT22;789;51.612;7.510;2022-12-11T13:11:38;4.30;1.00
1592;DHT22;789;51.612;7.510;2022-12-11T13:14:20;4.30;1.00
1592;DHT22;789;51.612;7.510;2022-12-11T13:16:51;4.30;1.00
1592;DHT22;789;51.612;7.510;2022-12-11T13:19:32;4.30;1.00
1592;DHT22;789;51.612;7.510;2022-12-11T13:22:19;4.20;1.00
1592;DHT22;789;51.612;7.510;2022-12-11T13:24:47;4.10;1.00
1592;DHT22;789;51.612;7.510;2022-12-11T13:27:23;4.10;1.00
1592;DHT22;789;51.612;7.510;2022-12-11T13:29:51;4.10;1.00
1592;DHT22;789;51.612;7.510;2022-12-11T13:32:22;4.10;1.00
1592;DHT22;789;51.612;7.510;2022-12-11T13:34:57;4.10;1.00
1592;DHT22;789;51.612;7.510;2022-12-11T13:37:28;4.10;1.00
1592;DHT22;789;51.612;7.510;2022-12-11T13:39:58;4.10;1.00
1592;DHT22;789;51.612;7.510;2022-12-11T13:42:28;4.10;1.00
1592;DHT22;789;51.612;7.510;2022-12-11T13:44:57;4.10;1.00
1592;DHT22;789;51.612;7.510;2022-12-11T13:47:25;4.10;1.00
1592;DHT22;789;51.612;7.510;2022-12-11T13:49:54;4.10;1.00
1592;DHT22;789;51.612;7.510;2022-12-11T13:52:23;4.00;1.00
1592;DHT22;789;51.612;7.510;2022-12-11T13:54:54;4.00;1.00
1592;DHT22;789;51.612;7.510;2022-12-11T13:57:24;4.00;1.00
1592;DHT22;789;51.612;7.510;2022-12-11T13:59:54;4.00;1.00
1592;DHT22;789;51.612;7.510;2022-12-11T14:02:24;4.00;1.00
1592;DHT22;789;51.612;7.510;2022-12-11T14:04:54;4.10;1.00
1592;DHT22;789;51.612;7.510;2022-12-11T14:07:25;4.10;1.00
1592;DHT22;789;51.612;7.510;2022-12-11T14:09:58;4.10;1.00
1592;DHT22;789;51.612;7.510;2022-12-11T14:12:27;4.20;1.00
1592;DHT22;789;51.612;7.510;2022-12-11T14:14:55;4.20;1.00
1592;DHT22;789;51.612;7.510;2022-12-11T14:17:24;4.20;1.00
1592;DHT22;789;51.612;7.510;2022-12-11T14:19:53;4.20;1.00
1592;DHT22;789;51.612;7.510;2022-12-11T14:22:21;4.20;1.00
1592;DHT22;789;51.612;7.510;2022-12-11T14:24:50;4.20;1.00
1592;DHT22;789;51.612;7.510;2022-12-11T14:27:19;4.20;1.00
1592;DHT22;789;51.612;7.510;2022-12-11T14:29:47;4.30;1.00
1592;DHT22;789;51.612;7.510;2022-12-11T14:32:19;4.20;1.00
1592;DHT22;789;51.612;7.510;2022-12-11T14:34:48;4.20;1.00
1592;DHT22;789;51.612;7.510;2022-12-11T14:37:18;4.20;1.00
1592;DHT22;789;51.612;7.510;2022-12-11T14:39:52;4.30;1.00
1592;DHT22;789;51.612;7.510;2022-12-11T14:42:23;4.30;1.00
1592;DHT22;789;51.612;7.510;2022-12-11T14:44:55;4.30;1.00
1592;DHT22;789;51.612;7.510;2022-12-11T14:47:25;4.30;1.00
1592;DHT22;789;51.612;7.510;2022-12-11T14:49:55;4.40;1.00
1592;DHT22;789;51.612;7.510;2022-12-11T14:52:30;4.40;1.00
1592;DHT22;789;51.612;7.510;2022-12-11T14:55:02;4.40;1.00
1592;DHT22;789;51.612;7.510;2022-12-11T14:57:33;4.40;1.00
1592;DHT22;789;51.612;7.510;2022-12-11T15:00:02;4.40;1.00
1592;DHT22;789;51.612;7.510;2022-12-11T15:02:31;4.40;1.00
1592;DHT22;789;51.612;7.510;2022-12-11T15:05:04;4.40;1.00
1592;DHT22;789;51.612;7.510;2022-12-11T15:07:32;4.40;1.00
1592;DHT22;789;51.612;7.510;2022-12-11T15:09:59;4.40;1.00
1592;DHT22;789;51.612;7.510;2022-12-11T15:12:26;4.40;1.00
1592;DHT22;789;51.612;7.510;2022-12-11T15:15:14;4.40;1.00
1592;DHT22;789;51.612;7.510;2022-12-11T15:17:47;4.40;1.00
1592;DHT22;789;51.612;7.510;2022-12-11T15:20:23;4.50;1.00
1592;DHT22;789;51.612;7.510;2022-12-11T15:22:52;4.50;1.00
1592;DHT22;789;51.612;7.510;2022-12-11T15:25:21;4.50;1.00
1592;DHT22;789;51.612;7.510;2022-12-11T15:27:50;4.50;1.00
1592;DHT22;789;51.612;7.510;2022-12-11T15:30:35;4.60;1.00
1592;DHT22;789;51.612;7.510;2022-12-11T15:33:04;4.40;1.00
1592;DHT22;789;51.612;7.510;2022-12-11T15:35:57;4.40;1.00
1592;DHT22;789;51.612;7.510;2022-12-11T15:38:33;4.40;1.00
1592;DHT22;789;51.612;7.510;2022-12-11T15:41:05;4.30;1.00
1592;DHT22;789;51.612;7.510;2022-12-11T15:43:36;4.30;1.00
1592;DHT22;789;51.612;7.510;2022-12-11T15:46:05;4.30;1.00
1592;DHT22;789;51.612;7.510;2022-12-11T15:48:32;4.30;1.00
1592;DHT22;789;51.612;7.510;2022-12-11T15:50:59;4.30;1.00
1592;DHT22;789;51.612;7.510;2022-12-11T15:53:26;4.40;1.00
1592;DHT22;789;51.612;7.510;2022-12-11T15:55:52;4.40;1.00
1592;DHT22;789;51.612;7.510;2022-12-11T15:58:21;4.30;1.00
1592;DHT22;789;51.612;7.510;2022-12-11T16:00:48;4.40;1.00
1592;DHT22;789;51.612;7.510;2022-12-11T16:03:18;4.40;1.00
1592;DHT22;789;51.612;7.510;2022-12-11T16:05:45;4.40;1.00
1592;DHT22;789;51.612;7.510;2022-12-11T16:08:14;4.50;1.00
1592;DHT22;789;51.612;7.510;2022-12-11T16:10:42;4.50;1.00
1592;DHT22;789;51.612;7.510;2022-12-11T16:13:09;4.40;1.00
1592;DHT22;789;51.612;7.510;2022-12-11T16:15:36;4.40;1.00
1592;DHT22;789;51.612;7.510;2022-12-11T16:18:07;4.40;1.00
1592;DHT22;789;51.612;7.510;2022-12-11T16:20:38;4.40;1.00
1592;DHT22;789;51.612;7.510;2022-12-11T16:23:05;4.40;1.00
1592;DHT22;789;51.612;7.510;2022-12-11T16:25:33;4.50;1.00
1592;DHT22;789;51.612;7.510;2022-12-11T16:28:02;4.50;1.00
1592;DHT22;789;51.612;7.510;2022-12-11T16:30:33;4.50;1.00
1592;DHT22;789;51.612;7.510;2022-12-11T16:33:01;4.50;1.00
1592;DHT22;789;51.612;7.510;2022-12-11T16:35:28;4.50;1.00
1592;DHT22;789;51.612;7.510;2022-12-11T16:37:57;4.50;1.00
1592;DHT22;789;51.612;7.510;2022-12-11T16:40:24;4.50;1.00
1592;DHT22;789;51.612;7.510;2022-12-11T16:42:52;4.50;1.00
1592;DHT22;789;51.612;7.510;2022-12-11T16:45:23;4.50;1.00
1592;DHT22;789;51.612;7.510;2022-12-11T16:47:51;4.40;1.00
1592;DHT22;789;51.612;7.510;2022-12-11T16:50:18;4.40;1.00
1592;DHT22;789;51.612;7.510;2022-12-11T16:52:45;4.40;1.00
1592;DHT22;789;51.612;7.510;2022-12-11T16:55:13;4.40;1.00
1592;DHT22;789;51.612;7.510;2022-12-11T16:57:40;4.40;1.00
1592;DHT22;789;51.612;7.510;2022-12-11T17:00:09;4.40;1.00
1592;DHT22;789;51.612;7.510;2022-12-11T17:02:37;4.30;1.00
1592;DHT22;789;51.612;7.510;2022-12-11T17:05:04;4.30;1.00
1592;DHT22;789;51.612;7.510;2022-12-11T17:07:32;4.30;1.00
1592;DHT22;789;51.612;7.510;2022-12-11T17:10:02;4.20;1.00
1592;DHT22;789;51.612;7.510;2022-12-11T17:12:30;4.20;1.00
1592;DHT22;789;51.612;7.510;2022-12-11T17:14:57;4.10;1.00
1592;DHT22;789;51.612;7.510;2022-12-11T17:17:24;4.10;1.00